Epic Sentosa — 9V2720 — position and weather

sailwx.info

Track history (hours):
 
Tides and Currents Weather Stations Pressure Air Temp Water Temp Dewpoint Dewpoint Depression Visibility Wind Speed Wind Dir Waves Ship Positions

Epic Sentosa

Last reported at 2017-Sep-20 06:04 UTC. Time now 2017-Sep-20 22:13 UTC.
Position N 44°31' E 012°27'.

Length 120 m; draft 5.9 m.

Type: Ship (hazmat cat D). MMSI: 565502000.

Date/timePositionNaut miles runAvg speedWind from/ knotsBaromVisibWave heightAir tempDewpointWater temp
2017-Sep-20 06:04N 44°31' E 012°27'0 0.1
2017-Sep-20 05:58N 44°31' E 012°27'0 0.0
2017-Sep-20 05:19N 44°31' E 012°27'0 0.0
2017-Sep-18 12:34N 44°31' E 012°27'0 0.0
2017-Sep-18 11:22N 44°31' E 012°27'0 0.0
2017-Sep-18 10:52N 44°31' E 012°27'1 0.2
2017-Sep-18 04:53N 44°31' E 012°29'32014.7
2017-Sep-17 07:06N 41°09' E 018°07'215.0
2017-Sep-17 06:59N 41°08' E 018°09'714.8
2017-Sep-17 06:30N 41°04' E 018°17'815.0
2017-Sep-17 06:01N 40°59' E 018°24'815.0
2017-Sep-17 05:31N 40°54' E 018°32'715.0
2017-Sep-17 05:01N 40°48' E 018°38'815.4
2017-Sep-17 04:31N 40°41' E 018°42'815.6
2017-Sep-17 04:01N 40°34' E 018°46'815.7
2017-Sep-17 03:31N 40°27' E 018°51'815.8
2017-Sep-17 03:00N 40°20' E 018°55'815.8
2017-Sep-17 02:31N 40°12' E 018°59'815.9
2017-Sep-17 01:59N 40°05' E 019°03'815.9
2017-Sep-17 01:31N 39°58' E 019°07'815.9
2017-Sep-17 01:00N 39°51' E 019°12'815.7
2017-Sep-17 00:30N 39°43' E 019°15'816.0
2017-Sep-17 00:00N 39°35' E 019°18'815.7
2017-Sep-16 23:30N 39°28' E 019°22'815.2
2017-Sep-16 23:00N 39°21' E 019°25'815.3
2017-Sep-16 22:31N 39°14' E 019°28'815.6
2017-Sep-16 22:01N 39°06' E 019°32'815.8
2017-Sep-16 21:31N 38°59' E 019°35'816.1
2017-Sep-16 21:00N 38°51' E 019°38'816.2
2017-Sep-16 20:30N 38°44' E 019°42'816.1
2017-Sep-16 20:01N 38°36' E 019°45'815.8
2017-Sep-16 19:30N 38°29' E 019°48'815.5
2017-Sep-16 19:01N 38°21' E 019°52'815.3
2017-Sep-16 18:30N 38°14' E 019°55'815.6
2017-Sep-16 18:00N 38°06' E 019°58'815.4
2017-Sep-16 17:30N 37°60' E 020°03'815.5
2017-Sep-16 17:00N 37°53' E 020°08'815.3
2017-Sep-16 16:30N 37°47' E 020°13'815.1
2017-Sep-16 16:01N 37°40' E 020°18'714.8
2017-Sep-16 15:31N 37°34' E 020°23'1714.5
2017-Sep-16 14:22N 37°20' E 020°34'514.6
2017-Sep-16 14:00N 37°16' E 020°38'714.7
2017-Sep-16 13:30N 37°10' E 020°43'20914.8
2017-Sep-15 23:26N 34°47' E 023°51'715.1
2017-Sep-15 22:58N 34°43' E 023°58'715.0
2017-Sep-15 22:30N 34°38' E 024°04'52114.8
2017-Sep-14 11:24N 33°58' E 034°33'715.7
2017-Sep-14 10:58N 33°57' E 034°41'1015.7
2017-Sep-14 10:20N 33°57' E 034°53'19 0.8
2017-Sep-13 10:13N 33°54' E 035°16'315.0
2017-Sep-13 10:00N 33°54' E 035°12'815.3
2017-Sep-13 09:30N 33°50' E 035°03'815.3
2017-Sep-13 09:00N 33°47' E 034°55'815.4
2017-Sep-13 08:30N 33°44' E 034°46'815.4
2017-Sep-13 08:00N 33°41' E 034°38'1315.5
2017-Sep-13 07:11N 33°36' E 034°24'315.5
2017-Sep-13 06:59N 33°35' E 034°21'815.6
2017-Sep-13 06:30N 33°32' E 034°12'815.6
2017-Sep-13 06:00N 33°29' E 034°04'815.4
2017-Sep-13 05:30N 33°26' E 033°55'815.1
2017-Sep-13 05:00N 33°23' E 033°47'715.3
2017-Sep-13 04:30N 33°20' E 033°39'815.1
2017-Sep-13 04:00N 33°17' E 033°30'815.1
2017-Sep-13 03:30N 33°14' E 033°22'714.9
2017-Sep-13 03:00N 33°11' E 033°14'714.8
2017-Sep-13 02:30N 33°08' E 033°06'715.0
2017-Sep-13 02:00N 33°05' E 032°58'714.9
2017-Sep-13 01:30N 33°02' E 032°49'714.9
2017-Sep-13 01:00N 32°59' E 032°41'815.0
2017-Sep-13 00:30N 32°56' E 032°33'815.3
2017-Sep-13 00:00N 32°53' E 032°25'1015.4
2017-Sep-12 23:23N 32°49' E 032°14'915.4
2017-Sep-12 22:47N 32°45' E 032°04'5815.4
2017-Sep-12 19:02N 32°22' E 031°02'115.7
2017-Sep-12 18:57N 32°22' E 031°00'1215.4
2017-Sep-12 18:11N 32°17' E 030°47'8310.4
2017-Sep-12 10:11N 31°23' E 029°33'614.8
2017-Sep-12 09:45N 31°20' E 029°39'814.6
2017-Sep-12 09:12N 31°14' E 029°46'  
Track history (hours):
 
Tides and Currents Weather Stations Pressure Air Temp Water Temp Dewpoint Dewpoint Depression Visibility Wind Speed Wind Dir Waves Ship Positions

Epic Sentosa

Last reported at 2017-Sep-20 06:04 UTC. Time now 2017-Sep-20 22:13 UTC.
Position N 44°31' E 012°27'.

Length 120 m; draft 5.9 m.

Type: Ship (hazmat cat D). MMSI: 565502000.

Date/timePositionNaut miles runAvg speedWind from/ knotsBaromVisibWave heightAir tempDewpointWater temp
2017-Sep-20 06:04N 44°31' E 012°27'0 0.1
2017-Sep-20 05:58N 44°31' E 012°27'0 0.0
2017-Sep-20 05:19N 44°31' E 012°27'0 0.0
2017-Sep-18 12:34N 44°31' E 012°27'0 0.0
2017-Sep-18 11:22N 44°31' E 012°27'0 0.0
2017-Sep-18 10:52N 44°31' E 012°27'1 0.2
2017-Sep-18 04:53N 44°31' E 012°29'32014.7
2017-Sep-17 07:06N 41°09' E 018°07'215.0
2017-Sep-17 06:59N 41°08' E 018°09'714.8
2017-Sep-17 06:30N 41°04' E 018°17'815.0
2017-Sep-17 06:01N 40°59' E 018°24'815.0
2017-Sep-17 05:31N 40°54' E 018°32'715.0
2017-Sep-17 05:01N 40°48' E 018°38'815.4
2017-Sep-17 04:31N 40°41' E 018°42'815.6
2017-Sep-17 04:01N 40°34' E 018°46'815.7
2017-Sep-17 03:31N 40°27' E 018°51'815.8
2017-Sep-17 03:00N 40°20' E 018°55'815.8
2017-Sep-17 02:31N 40°12' E 018°59'815.9
2017-Sep-17 01:59N 40°05' E 019°03'815.9
2017-Sep-17 01:31N 39°58' E 019°07'815.9
2017-Sep-17 01:00N 39°51' E 019°12'815.7
2017-Sep-17 00:30N 39°43' E 019°15'816.0
2017-Sep-17 00:00N 39°35' E 019°18'815.7
2017-Sep-16 23:30N 39°28' E 019°22'815.2
2017-Sep-16 23:00N 39°21' E 019°25'815.3
2017-Sep-16 22:31N 39°14' E 019°28'815.6
2017-Sep-16 22:01N 39°06' E 019°32'815.8
2017-Sep-16 21:31N 38°59' E 019°35'816.1
2017-Sep-16 21:00N 38°51' E 019°38'816.2
2017-Sep-16 20:30N 38°44' E 019°42'816.1
2017-Sep-16 20:01N 38°36' E 019°45'815.8
2017-Sep-16 19:30N 38°29' E 019°48'815.5
2017-Sep-16 19:01N 38°21' E 019°52'815.3
2017-Sep-16 18:30N 38°14' E 019°55'815.6
2017-Sep-16 18:00N 38°06' E 019°58'815.4
2017-Sep-16 17:30N 37°60' E 020°03'815.5
2017-Sep-16 17:00N 37°53' E 020°08'815.3
2017-Sep-16 16:30N 37°47' E 020°13'815.1
2017-Sep-16 16:01N 37°40' E 020°18'714.8
2017-Sep-16 15:31N 37°34' E 020°23'1714.5
2017-Sep-16 14:22N 37°20' E 020°34'514.6
2017-Sep-16 14:00N 37°16' E 020°38'714.7
2017-Sep-16 13:30N 37°10' E 020°43'20914.8
2017-Sep-15 23:26N 34°47' E 023°51'715.1
2017-Sep-15 22:58N 34°43' E 023°58'715.0
2017-Sep-15 22:30N 34°38' E 024°04'52114.8
2017-Sep-14 11:24N 33°58' E 034°33'715.7
2017-Sep-14 10:58N 33°57' E 034°41'1015.7
2017-Sep-14 10:20N 33°57' E 034°53'19 0.8
2017-Sep-13 10:13N 33°54' E 035°16'315.0
2017-Sep-13 10:00N 33°54' E 035°12'815.3
2017-Sep-13 09:30N 33°50' E 035°03'815.3
2017-Sep-13 09:00N 33°47' E 034°55'815.4
2017-Sep-13 08:30N 33°44' E 034°46'815.4
2017-Sep-13 08:00N 33°41' E 034°38'1315.5
2017-Sep-13 07:11N 33°36' E 034°24'315.5
2017-Sep-13 06:59N 33°35' E 034°21'815.6
2017-Sep-13 06:30N 33°32' E 034°12'815.6
2017-Sep-13 06:00N 33°29' E 034°04'815.4
2017-Sep-13 05:30N 33°26' E 033°55'815.1
2017-Sep-13 05:00N 33°23' E 033°47'715.3
2017-Sep-13 04:30N 33°20' E 033°39'815.1
2017-Sep-13 04:00N 33°17' E 033°30'815.1
2017-Sep-13 03:30N 33°14' E 033°22'714.9
2017-Sep-13 03:00N 33°11' E 033°14'714.8
2017-Sep-13 02:30N 33°08' E 033°06'715.0
2017-Sep-13 02:00N 33°05' E 032°58'714.9
2017-Sep-13 01:30N 33°02' E 032°49'714.9
2017-Sep-13 01:00N 32°59' E 032°41'815.0
2017-Sep-13 00:30N 32°56' E 032°33'815.3
2017-Sep-13 00:00N 32°53' E 032°25'1015.4
2017-Sep-12 23:23N 32°49' E 032°14'915.4
2017-Sep-12 22:47N 32°45' E 032°04'5815.4
2017-Sep-12 19:02N 32°22' E 031°02'115.7
2017-Sep-12 18:57N 32°22' E 031°00'1215.4
2017-Sep-12 18:11N 32°17' E 030°47'8310.4
2017-Sep-12 10:11N 31°23' E 029°33'614.8
2017-Sep-12 09:45N 31°20' E 029°39'814.6
2017-Sep-12 09:12N 31°14' E 029°46'  

Dump ship's entire track history